KSKF/SKF METAR and TAF weather

Enter ICAO airport designator
Station Type Date Time Source
KSKF METAR 2020/01/21 18:41 UTC NOAA

KSKF 211841Z 16005G15KT 10SM FEW070 BKN100 16/02 A3038 RMK AO2A SLP288 $


Station Type Date Time Source
KSKF Decoded METAR 2020/01/21 18:41 UTC NOAA

Kelly Air Force Base, TX, United States (KSKF) 29-23N 098-35W
Jan 21, 2020 - 01:41 PM EST / 2020.01.21 1841 UTC
Wind: from the SSE (160 degrees) at 6 MPH (5 KT) gusting to 17 MPH (15 KT):0
Visibility: 10 mile(s):0
Sky conditions: mostly cloudy
Temperature: 60 F (16 C)
Dew Point: 35 F (2 C)
Relative Humidity: 38%
Pressure (altimeter): 30.38 in. Hg (1028 hPa)
ob: KSKF 211841Z 16005G15KT 10SM FEW070 BKN100 16/02 A3038 RMK AO2A SLP288
cycle: 18

Station Type Date Time Source
KSKF TAF 2020/01/21 18:06 UTC NOAA

TAF TAF KSKF 211800Z 2118/2224 13014KT 9999 BKN060 BKN120 QNH3024INS
BECMG 2201/2202 13014G22KT 9999 OVC040 QNH3017INS
BECMG 2204/2205 13010KT 9000 -RA SCT009 OVC020 QNH3005INS
BECMG 2207/2208 13006KT 4800 -RA BR OVC006 QNH2997INS
TEMPO 2209/2213 2400 RA BR
BECMG 2219/2220 10008KT 9999 VCSH OVC009 QNH2988INS TX17/2120Z TN09/2212Z

Example: see airport list